sensor_id;sensor_type;location;lat;lon;timestamp;P1;durP1;ratioP1;P2;durP2;ratioP2
74626;SDS011;63132;52.268;5.192;2023-03-11T00:00:33;7.60;;;1.08;;
74626;SDS011;63132;52.268;5.192;2023-03-11T00:03:02;4.97;;;1.08;;
74626;SDS011;63132;52.268;5.192;2023-03-11T00:05:29;8.57;;;1.38;;
74626;SDS011;63132;52.268;5.192;2023-03-11T00:07:56;7.80;;;1.50;;
74626;SDS011;63132;52.268;5.192;2023-03-11T00:10:32;10.02;;;1.45;;
74626;SDS011;63132;52.268;5.192;2023-03-11T00:13:01;8.35;;;1.33;;
74626;SDS011;63132;52.268;5.192;2023-03-11T00:15:28;5.88;;;1.52;;
74626;SDS011;63132;52.268;5.192;2023-03-11T00:17:54;9.43;;;1.10;;
74626;SDS011;63132;52.268;5.192;2023-03-11T00:20:21;4.80;;;0.75;;
74626;SDS011;63132;52.268;5.192;2023-03-11T00:22:49;10.52;;;1.80;;
74626;SDS011;63132;52.268;5.192;2023-03-11T00:25:15;9.30;;;1.13;;
74626;SDS011;63132;52.268;5.192;2023-03-11T00:27:42;6.25;;;1.60;;
74626;SDS011;63132;52.268;5.192;2023-03-11T00:30:08;6.38;;;1.08;;
74626;SDS011;63132;52.268;5.192;2023-03-11T00:32:34;8.35;;;1.27;;
74626;SDS011;63132;52.268;5.192;2023-03-11T00:35:00;4.72;;;1.33;;
74626;SDS011;63132;52.268;5.192;2023-03-11T00:37:26;6.50;;;1.15;;
74626;SDS011;63132;52.268;5.192;2023-03-11T00:39:51;6.73;;;1.00;;
74626;SDS011;63132;52.268;5.192;2023-03-11T00:42:16;3.60;;;0.90;;
74626;SDS011;63132;52.268;5.192;2023-03-11T00:44:42;10.73;;;3.25;;
74626;SDS011;63132;52.268;5.192;2023-03-11T00:47:08;4.00;;;1.10;;
74626;SDS011;63132;52.268;5.192;2023-03-11T00:49:35;2.90;;;1.15;;
74626;SDS011;63132;52.268;5.192;2023-03-11T00:52:01;5.00;;;0.90;;
74626;SDS011;63132;52.268;5.192;2023-03-11T00:54:27;8.20;;;1.10;;
74626;SDS011;63132;52.268;5.192;2023-03-11T00:56:52;5.22;;;1.20;;
74626;SDS011;63132;52.268;5.192;2023-03-11T00:59:17;6.63;;;1.47;;
74626;SDS011;63132;52.268;5.192;2023-03-11T01:01:43;4.00;;;0.90;;
74626;SDS011;63132;52.268;5.192;2023-03-11T01:04:08;8.67;;;3.20;;
74626;SDS011;63132;52.268;5.192;2023-03-11T01:06:34;5.17;;;1.20;;
74626;SDS011;63132;52.268;5.192;2023-03-11T01:08:59;4.70;;;1.50;;
74626;SDS011;63132;52.268;5.192;2023-03-11T01:11:24;13.60;;;1.87;;
74626;SDS011;63132;52.268;5.192;2023-03-11T01:13:50;4.27;;;0.80;;
74626;SDS011;63132;52.268;5.192;2023-03-11T01:16:16;11.30;;;1.30;;
74626;SDS011;63132;52.268;5.192;2023-03-11T01:18:41;5.93;;;1.07;;
74626;SDS011;63132;52.268;5.192;2023-03-11T01:21:06;6.07;;;1.20;;
74626;SDS011;63132;52.268;5.192;2023-03-11T01:23:32;9.60;;;1.20;;
74626;SDS011;63132;52.268;5.192;2023-03-11T01:25:57;10.27;;;2.05;;
74626;SDS011;63132;52.268;5.192;2023-03-11T01:28:23;6.57;;;1.00;;
74626;SDS011;63132;52.268;5.192;2023-03-11T01:30:48;2.07;;;0.90;;
74626;SDS011;63132;52.268;5.192;2023-03-11T01:33:15;8.60;;;1.52;;
74626;SDS011;63132;52.268;5.192;2023-03-11T01:35:42;8.57;;;1.35;;
74626;SDS011;63132;52.268;5.192;2023-03-11T01:38:08;7.43;;;1.30;;
74626;SDS011;63132;52.268;5.192;2023-03-11T01:40:53;4.82;;;0.93;;
74626;SDS011;63132;52.268;5.192;2023-03-11T01:43:38;2.92;;;1.20;;
74626;SDS011;63132;52.268;5.192;2023-03-11T01:49:00;5.18;;;0.95;;
74626;SDS011;63132;52.268;5.192;2023-03-11T01:51:32;10.05;;;1.42;;
74626;SDS011;63132;52.268;5.192;2023-03-11T01:54:17;3.20;;;1.08;;
74626;SDS011;63132;52.268;5.192;2023-03-11T01:56:46;8.13;;;1.10;;
74626;SDS011;63132;52.268;5.192;2023-03-11T01:59:14;8.23;;;1.92;;
74626;SDS011;63132;52.268;5.192;2023-03-11T02:02:06;8.82;;;1.50;;
74626;SDS011;63132;52.268;5.192;2023-03-11T02:04:34;6.28;;;1.23;;
74626;SDS011;63132;52.268;5.192;2023-03-11T02:07:01;9.43;;;1.52;;
74626;SDS011;63132;52.268;5.192;2023-03-11T02:09:28;6.65;;;1.42;;
74626;SDS011;63132;52.268;5.192;2023-03-11T02:11:53;4.97;;;1.30;;
74626;SDS011;63132;52.268;5.192;2023-03-11T02:14:20;9.73;;;1.48;;
74626;SDS011;63132;52.268;5.192;2023-03-11T02:16:47;3.58;;;1.00;;
74626;SDS011;63132;52.268;5.192;2023-03-11T02:19:25;5.60;;;0.90;;
74626;SDS011;63132;52.268;5.192;2023-03-11T02:21:53;3.88;;;0.75;;
74626;SDS011;63132;52.268;5.192;2023-03-11T02:27:14;5.28;;;1.00;;
74626;SDS011;63132;52.268;5.192;2023-03-11T02:29:43;4.63;;;0.93;;
74626;SDS011;63132;52.268;5.192;2023-03-11T02:32:11;7.75;;;0.93;;
74626;SDS011;63132;52.268;5.192;2023-03-11T02:37:04;3.20;;;0.65;;
74626;SDS011;63132;52.268;5.192;2023-03-11T02:39:32;4.72;;;1.05;;
74626;SDS011;63132;52.268;5.192;2023-03-11T02:44:36;4.50;;;0.80;;
74626;SDS011;63132;52.268;5.192;2023-03-11T02:47:03;4.97;;;0.98;;
74626;SDS011;63132;52.268;5.192;2023-03-11T02:49:29;4.75;;;0.70;;
74626;SDS011;63132;52.268;5.192;2023-03-11T02:51:55;1.52;;;0.60;;
74626;SDS011;63132;52.268;5.192;2023-03-11T02:54:20;7.88;;;1.27;;
74626;SDS011;63132;52.268;5.192;2023-03-11T02:56:46;8.53;;;0.90;;
74626;SDS011;63132;52.268;5.192;2023-03-11T02:59:11;5.60;;;1.10;;
74626;SDS011;63132;52.268;5.192;2023-03-11T03:01:37;3.60;;;0.80;;
74626;SDS011;63132;52.268;5.192;2023-03-11T03:04:02;3.55;;;1.00;;
74626;SDS011;63132;52.268;5.192;2023-03-11T03:06:28;3.00;;;0.88;;
74626;SDS011;63132;52.268;5.192;2023-03-11T03:08:53;2.70;;;0.67;;
74626;SDS011;63132;52.268;5.192;2023-03-11T03:11:22;3.78;;;0.98;;
74626;SDS011;63132;52.268;5.192;2023-03-11T03:13:48;5.30;;;1.00;;
74626;SDS011;63132;52.268;5.192;2023-03-11T03:16:13;10.27;;;1.33;;
74626;SDS011;63132;52.268;5.192;2023-03-11T03:18:38;8.60;;;1.30;;
74626;SDS011;63132;52.268;5.192;2023-03-11T03:21:04;2.35;;;1.05;;
74626;SDS011;63132;52.268;5.192;2023-03-11T03:23:29;5.88;;;1.15;;
74626;SDS011;63132;52.268;5.192;2023-03-11T03:25:59;8.98;;;1.10;;
74626;SDS011;63132;52.268;5.192;2023-03-11T03:28:25;7.43;;;1.20;;
74626;SDS011;63132;52.268;5.192;2023-03-11T03:30:51;6.35;;;1.20;;
74626;SDS011;63132;52.268;5.192;2023-03-11T03:33:17;11.57;;;1.70;;
74626;SDS011;63132;52.268;5.192;2023-03-11T03:35:43;4.88;;;0.98;;
74626;SDS011;63132;52.268;5.192;2023-03-11T03:38:09;1.58;;;0.93;;
74626;SDS011;63132;52.268;5.192;2023-03-11T03:40:35;7.30;;;1.20;;
74626;SDS011;63132;52.268;5.192;2023-03-11T03:43:00;6.80;;;1.30;;
74626;SDS011;63132;52.268;5.192;2023-03-11T03:45:26;7.50;;;1.30;;
74626;SDS011;63132;52.268;5.192;2023-03-11T03:47:51;4.22;;;1.15;;
74626;SDS011;63132;52.268;5.192;2023-03-11T03:50:17;10.47;;;1.50;;
74626;SDS011;63132;52.268;5.192;2023-03-11T03:52:42;5.60;;;1.40;;
74626;SDS011;63132;52.268;5.192;2023-03-11T03:55:07;2.77;;;1.10;;
74626;SDS011;63132;52.268;5.192;2023-03-11T03:57:33;7.75;;;1.70;;
74626;SDS011;63132;52.268;5.192;2023-03-11T03:59:58;8.77;;;1.50;;
74626;SDS011;63132;52.268;5.192;2023-03-11T04:02:24;5.43;;;1.38;;
74626;SDS011;63132;52.268;5.192;2023-03-11T04:04:49;6.25;;;1.65;;
74626;SDS011;63132;52.268;5.192;2023-03-11T04:07:15;2.95;;;1.30;;
74626;SDS011;63132;52.268;5.192;2023-03-11T04:09:41;7.20;;;1.50;;
74626;SDS011;63132;52.268;5.192;2023-03-11T04:12:16;7.40;;;2.10;;
74626;SDS011;63132;52.268;5.192;2023-03-11T04:14:42;11.90;;;1.63;;
74626;SDS011;63132;52.268;5.192;2023-03-11T04:17:11;5.65;;;1.60;;
74626;SDS011;63132;52.268;5.192;2023-03-11T04:19:38;11.80;;;1.63;;
74626;SDS011;63132;52.268;5.192;2023-03-11T04:22:04;9.45;;;2.05;;
74626;SDS011;63132;52.268;5.192;2023-03-11T04:24:30;6.97;;;1.38;;
74626;SDS011;63132;52.268;5.192;2023-03-11T04:26:56;4.80;;;1.65;;
74626;SDS011;63132;52.268;5.192;2023-03-11T04:29:21;14.43;;;1.80;;
74626;SDS011;63132;52.268;5.192;2023-03-11T04:31:46;7.83;;;1.93;;
74626;SDS011;63132;52.268;5.192;2023-03-11T04:34:12;12.67;;;1.67;;
74626;SDS011;63132;52.268;5.192;2023-03-11T04:36:37;11.10;;;1.90;;
74626;SDS011;63132;52.268;5.192;2023-03-11T04:39:03;5.83;;;1.90;;
74626;SDS011;63132;52.268;5.192;2023-03-11T04:41:28;7.53;;;2.00;;
74626;SDS011;63132;52.268;5.192;2023-03-11T04:43:53;5.63;;;1.90;;
74626;SDS011;63132;52.268;5.192;2023-03-11T04:46:19;10.80;;;1.80;;
74626;SDS011;63132;52.268;5.192;2023-03-11T04:48:44;9.60;;;2.90;;
74626;SDS011;63132;52.268;5.192;2023-03-11T04:51:10;10.33;;;1.90;;
74626;SDS011;63132;52.268;5.192;2023-03-11T04:53:35;11.37;;;1.93;;
74626;SDS011;63132;52.268;5.192;2023-03-11T04:56:00;6.60;;;1.90;;
74626;SDS011;63132;52.268;5.192;2023-03-11T04:58:26;6.20;;;1.60;;
74626;SDS011;63132;52.268;5.192;2023-03-11T05:00:51;4.97;;;1.60;;
74626;SDS011;63132;52.268;5.192;2023-03-11T05:03:17;7.53;;;1.83;;
74626;SDS011;63132;52.268;5.192;2023-03-11T05:05:43;7.10;;;2.15;;
74626;SDS011;63132;52.268;5.192;2023-03-11T05:08:09;7.05;;;1.83;;
74626;SDS011;63132;52.268;5.192;2023-03-11T05:10:34;6.20;;;2.15;;
74626;SDS011;63132;52.268;5.192;2023-03-11T05:13:00;5.15;;;1.67;;
74626;SDS011;63132;52.268;5.192;2023-03-11T05:15:26;5.80;;;1.75;;
74626;SDS011;63132;52.268;5.192;2023-03-11T05:17:54;10.88;;;2.05;;
74626;SDS011;63132;52.268;5.192;2023-03-11T05:20:20;11.23;;;2.05;;
74626;SDS011;63132;52.268;5.192;2023-03-11T05:22:46;6.50;;;2.00;;
74626;SDS011;63132;52.268;5.192;2023-03-11T05:25:11;20.93;;;2.30;;
74626;SDS011;63132;52.268;5.192;2023-03-11T05:27:37;4.80;;;2.55;;
74626;SDS011;63132;52.268;5.192;2023-03-11T05:30:02;9.27;;;2.17;;
74626;SDS011;63132;52.268;5.192;2023-03-11T05:32:28;4.68;;;2.00;;
74626;SDS011;63132;52.268;5.192;2023-03-11T05:34:53;8.90;;;2.20;;
74626;SDS011;63132;52.268;5.192;2023-03-11T05:37:19;10.63;;;2.03;;
74626;SDS011;63132;52.268;5.192;2023-03-11T05:39:44;11.82;;;2.30;;
74626;SDS011;63132;52.268;5.192;2023-03-11T05:42:10;5.43;;;2.17;;
74626;SDS011;63132;52.268;5.192;2023-03-11T05:44:35;7.63;;;2.53;;
74626;SDS011;63132;52.268;5.192;2023-03-11T05:47:01;4.80;;;1.73;;
74626;SDS011;63132;52.268;5.192;2023-03-11T05:49:26;7.40;;;1.60;;
74626;SDS011;63132;52.268;5.192;2023-03-11T05:51:52;6.68;;;1.83;;
74626;SDS011;63132;52.268;5.192;2023-03-11T05:54:20;6.25;;;1.70;;
74626;SDS011;63132;52.268;5.192;2023-03-11T05:56:46;10.38;;;1.90;;
74626;SDS011;63132;52.268;5.192;2023-03-11T05:59:12;7.25;;;2.10;;
74626;SDS011;63132;52.268;5.192;2023-03-11T06:01:39;13.75;;;1.92;;
74626;SDS011;63132;52.268;5.192;2023-03-11T06:04:04;13.50;;;2.50;;
74626;SDS011;63132;52.268;5.192;2023-03-11T06:06:30;11.90;;;2.42;;
74626;SDS011;63132;52.268;5.192;2023-03-11T06:08:56;7.37;;;2.00;;
74626;SDS011;63132;52.268;5.192;2023-03-11T06:11:22;11.35;;;2.33;;
74626;SDS011;63132;52.268;5.192;2023-03-11T06:13:54;9.00;;;2.35;;
74626;SDS011;63132;52.268;5.192;2023-03-11T06:16:21;6.47;;;2.10;;
74626;SDS011;63132;52.268;5.192;2023-03-11T06:18:48;6.75;;;2.40;;
74626;SDS011;63132;52.268;5.192;2023-03-11T06:21:20;8.50;;;2.00;;
74626;SDS011;63132;52.268;5.192;2023-03-11T06:23:48;9.32;;;3.08;;
74626;SDS011;63132;52.268;5.192;2023-03-11T06:28:41;9.98;;;2.53;;
74626;SDS011;63132;52.268;5.192;2023-03-11T06:31:09;8.15;;;2.35;;
74626;SDS011;63132;52.268;5.192;2023-03-11T06:33:36;10.05;;;2.40;;
74626;SDS011;63132;52.268;5.192;2023-03-11T06:36:02;6.50;;;2.20;;
74626;SDS011;63132;52.268;5.192;2023-03-11T06:38:29;6.45;;;2.47;;
74626;SDS011;63132;52.268;5.192;2023-03-11T06:40:57;10.07;;;2.30;;
74626;SDS011;63132;52.268;5.192;2023-03-11T06:43:24;12.20;;;2.83;;
74626;SDS011;63132;52.268;5.192;2023-03-11T06:45:49;7.97;;;1.95;;
74626;SDS011;63132;52.268;5.192;2023-03-11T06:48:15;7.43;;;2.30;;
74626;SDS011;63132;52.268;5.192;2023-03-11T06:50:41;13.90;;;2.40;;
74626;SDS011;63132;52.268;5.192;2023-03-11T06:53:06;7.23;;;2.03;;
74626;SDS011;63132;52.268;5.192;2023-03-11T06:55:32;5.07;;;1.67;;
74626;SDS011;63132;52.268;5.192;2023-03-11T06:58:00;7.43;;;2.53;;
74626;SDS011;63132;52.268;5.192;2023-03-11T07:00:26;5.43;;;2.28;;
74626;SDS011;63132;52.268;5.192;2023-03-11T07:02:52;11.70;;;2.42;;
74626;SDS011;63132;52.268;5.192;2023-03-11T07:05:17;6.80;;;2.30;;
74626;SDS011;63132;52.268;5.192;2023-03-11T07:07:43;10.32;;;2.58;;
74626;SDS011;63132;52.268;5.192;2023-03-11T07:10:08;10.55;;;2.53;;
74626;SDS011;63132;52.268;5.192;2023-03-11T07:12:34;8.50;;;2.30;;
74626;SDS011;63132;52.268;5.192;2023-03-11T07:15:00;7.72;;;2.40;;
74626;SDS011;63132;52.268;5.192;2023-03-11T07:17:25;8.73;;;2.20;;
74626;SDS011;63132;52.268;5.192;2023-03-11T07:19:52;7.80;;;2.88;;
74626;SDS011;63132;52.268;5.192;2023-03-11T07:22:18;7.05;;;2.67;;
74626;SDS011;63132;52.268;5.192;2023-03-11T07:24:47;8.90;;;2.40;;
74626;SDS011;63132;52.268;5.192;2023-03-11T07:27:13;10.15;;;3.33;;
74626;SDS011;63132;52.268;5.192;2023-03-11T07:29:38;8.33;;;2.43;;
74626;SDS011;63132;52.268;5.192;2023-03-11T07:32:05;7.87;;;3.03;;
74626;SDS011;63132;52.268;5.192;2023-03-11T07:34:31;7.35;;;2.80;;
74626;SDS011;63132;52.268;5.192;2023-03-11T07:36:56;6.77;;;2.70;;
74626;SDS011;63132;52.268;5.192;2023-03-11T07:39:21;11.05;;;2.58;;
74626;SDS011;63132;52.268;5.192;2023-03-11T07:41:47;17.00;;;3.10;;
74626;SDS011;63132;52.268;5.192;2023-03-11T07:44:13;8.98;;;3.10;;
74626;SDS011;63132;52.268;5.192;2023-03-11T07:46:39;14.38;;;2.97;;
74626;SDS011;63132;52.268;5.192;2023-03-11T07:49:05;10.30;;;3.03;;
74626;SDS011;63132;52.268;5.192;2023-03-11T07:51:32;11.68;;;2.90;;
74626;SDS011;63132;52.268;5.192;2023-03-11T07:53:59;14.10;;;3.10;;
74626;SDS011;63132;52.268;5.192;2023-03-11T07:56:30;10.52;;;3.15;;
74626;SDS011;63132;52.268;5.192;2023-03-11T07:58:57;9.50;;;3.10;;
74626;SDS011;63132;52.268;5.192;2023-03-11T08:01:25;13.23;;;3.50;;
74626;SDS011;63132;52.268;5.192;2023-03-11T08:03:54;8.88;;;3.30;;
74626;SDS011;63132;52.268;5.192;2023-03-11T08:06:23;11.48;;;2.85;;
74626;SDS011;63132;52.268;5.192;2023-03-11T08:08:50;14.10;;;3.50;;
74626;SDS011;63132;52.268;5.192;2023-03-11T08:11:16;11.23;;;4.18;;
74626;SDS011;63132;52.268;5.192;2023-03-11T08:13:43;13.57;;;3.40;;
74626;SDS011;63132;52.268;5.192;2023-03-11T08:16:10;12.10;;;3.90;;
74626;SDS011;63132;52.268;5.192;2023-03-11T08:18:38;11.80;;;3.78;;
74626;SDS011;63132;52.268;5.192;2023-03-11T08:21:04;9.00;;;3.58;;
74626;SDS011;63132;52.268;5.192;2023-03-11T08:23:34;8.63;;;3.42;;
74626;SDS011;63132;52.268;5.192;2023-03-11T08:26:03;15.90;;;5.07;;
74626;SDS011;63132;52.268;5.192;2023-03-11T08:28:29;12.43;;;4.20;;
74626;SDS011;63132;52.268;5.192;2023-03-11T08:30:55;15.00;;;3.70;;
74626;SDS011;63132;52.268;5.192;2023-03-11T08:33:20;7.27;;;3.40;;
74626;SDS011;63132;52.268;5.192;2023-03-11T08:35:46;12.90;;;3.30;;
74626;SDS011;63132;52.268;5.192;2023-03-11T08:38:11;13.03;;;3.53;;
74626;SDS011;63132;52.268;5.192;2023-03-11T08:40:36;12.03;;;3.37;;
74626;SDS011;63132;52.268;5.192;2023-03-11T08:43:02;7.13;;;2.73;;
74626;SDS011;63132;52.268;5.192;2023-03-11T08:45:27;9.57;;;3.20;;
74626;SDS011;63132;52.268;5.192;2023-03-11T08:47:53;11.23;;;3.20;;
74626;SDS011;63132;52.268;5.192;2023-03-11T08:50:18;10.47;;;3.20;;
74626;SDS011;63132;52.268;5.192;2023-03-11T08:52:44;7.28;;;2.83;;
74626;SDS011;63132;52.268;5.192;2023-03-11T08:55:11;11.40;;;2.67;;
74626;SDS011;63132;52.268;5.192;2023-03-11T08:57:39;9.18;;;2.85;;
74626;SDS011;63132;52.268;5.192;2023-03-11T09:00:05;9.55;;;2.47;;
74626;SDS011;63132;52.268;5.192;2023-03-11T09:02:32;7.07;;;2.35;;
74626;SDS011;63132;52.268;5.192;2023-03-11T09:04:58;13.18;;;5.03;;
74626;SDS011;63132;52.268;5.192;2023-03-11T09:07:23;12.63;;;2.40;;
74626;SDS011;63132;52.268;5.192;2023-03-11T09:09:48;10.13;;;1.60;;
74626;SDS011;63132;52.268;5.192;2023-03-11T09:12:14;14.25;;;4.55;;
74626;SDS011;63132;52.268;5.192;2023-03-11T09:14:42;15.65;;;3.10;;
74626;SDS011;63132;52.268;5.192;2023-03-11T09:17:08;8.25;;;2.10;;
74626;SDS011;63132;52.268;5.192;2023-03-11T09:19:36;13.00;;;1.80;;
74626;SDS011;63132;52.268;5.192;2023-03-11T09:22:02;10.57;;;1.80;;
74626;SDS011;63132;52.268;5.192;2023-03-11T09:24:28;9.23;;;1.75;;
74626;SDS011;63132;52.268;5.192;2023-03-11T09:26:56;8.95;;;1.90;;
74626;SDS011;63132;52.268;5.192;2023-03-11T09:29:21;6.00;;;2.03;;
74626;SDS011;63132;52.268;5.192;2023-03-11T09:31:47;10.60;;;1.90;;
74626;SDS011;63132;52.268;5.192;2023-03-11T09:34:12;6.80;;;1.87;;
74626;SDS011;63132;52.268;5.192;2023-03-11T09:36:39;9.17;;;1.80;;
74626;SDS011;63132;52.268;5.192;2023-03-11T09:39:06;4.00;;;1.73;;
74626;SDS011;63132;52.268;5.192;2023-03-11T09:50:08;3.53;;;1.15;;
74626;SDS011;63132;52.268;5.192;2023-03-11T09:52:47;4.85;;;1.15;;
74626;SDS011;63132;52.268;5.192;2023-03-11T09:55:26;5.82;;;1.33;;
74626;SDS011;63132;52.268;5.192;2023-03-11T09:58:03;5.43;;;1.15;;
74626;SDS011;63132;52.268;5.192;2023-03-11T10:00:35;4.78;;;1.23;;
74626;SDS011;63132;52.268;5.192;2023-03-11T10:03:01;5.25;;;0.82;;
74626;SDS011;63132;52.268;5.192;2023-03-11T10:05:28;6.13;;;1.05;;
74626;SDS011;63132;52.268;5.192;2023-03-11T10:10:58;4.05;;;1.10;;
74626;SDS011;63132;52.268;5.192;2023-03-11T10:13:58;5.47;;;1.45;;
74626;SDS011;63132;52.268;5.192;2023-03-11T10:27:45;4.45;;;1.33;;
74626;SDS011;63132;52.268;5.192;2023-03-11T10:30:24;7.82;;;1.08;;
74626;SDS011;63132;52.268;5.192;2023-03-11T10:33:03;3.92;;;1.05;;
74626;SDS011;63132;52.268;5.192;2023-03-11T10:35:35;10.30;;;1.10;;
74626;SDS011;63132;52.268;5.192;2023-03-11T10:38:29;14.45;;;2.30;;
74626;SDS011;63132;52.268;5.192;2023-03-11T10:41:00;9.20;;;1.20;;
74626;SDS011;63132;52.268;5.192;2023-03-11T10:43:45;3.40;;;1.25;;
74626;SDS011;63132;52.268;5.192;2023-03-11T10:46:24;4.28;;;1.00;;
74626;SDS011;63132;52.268;5.192;2023-03-11T10:48:51;8.23;;;1.30;;
74626;SDS011;63132;52.268;5.192;2023-03-11T10:51:21;7.25;;;1.55;;
74626;SDS011;63132;52.268;5.192;2023-03-11T10:53:52;10.90;;;1.33;;
74626;SDS011;63132;52.268;5.192;2023-03-11T10:56:34;2.97;;;1.08;;
74626;SDS011;63132;52.268;5.192;2023-03-11T10:59:05;4.43;;;1.13;;
74626;SDS011;63132;52.268;5.192;2023-03-11T11:01:55;7.40;;;1.40;;
74626;SDS011;63132;52.268;5.192;2023-03-11T11:04:29;5.75;;;1.25;;
74626;SDS011;63132;52.268;5.192;2023-03-11T11:12:36;10.85;;;1.63;;
74626;SDS011;63132;52.268;5.192;2023-03-11T11:15:27;5.68;;;1.00;;
74626;SDS011;63132;52.268;5.192;2023-03-11T11:18:00;4.38;;;1.30;;
74626;SDS011;63132;52.268;5.192;2023-03-11T11:20:30;10.15;;;1.40;;
74626;SDS011;63132;52.268;5.192;2023-03-11T11:22:58;7.20;;;1.50;;
74626;SDS011;63132;52.268;5.192;2023-03-11T11:25:26;3.83;;;1.23;;
74626;SDS011;63132;52.268;5.192;2023-03-11T11:27:56;6.43;;;1.30;;
74626;SDS011;63132;52.268;5.192;2023-03-11T11:30:24;10.68;;;1.20;;
74626;SDS011;63132;52.268;5.192;2023-03-11T11:35:20;7.00;;;1.10;;
74626;SDS011;63132;52.268;5.192;2023-03-11T11:37:49;3.92;;;1.25;;
74626;SDS011;63132;52.268;5.192;2023-03-11T11:40:24;5.95;;;1.20;;
74626;SDS011;63132;52.268;5.192;2023-03-11T11:45:37;4.77;;;1.37;;
74626;SDS011;63132;52.268;5.192;2023-03-11T11:54:01;8.05;;;1.20;;
74626;SDS011;63132;52.268;5.192;2023-03-11T11:56:45;4.93;;;1.83;;
74626;SDS011;63132;52.268;5.192;2023-03-11T11:59:15;5.35;;;1.02;;
74626;SDS011;63132;52.268;5.192;2023-03-11T12:04:20;9.90;;;0.95;;
74626;SDS011;63132;52.268;5.192;2023-03-11T12:09:31;3.78;;;0.82;;
74626;SDS011;63132;52.268;5.192;2023-03-11T12:12:13;5.05;;;0.98;;
74626;SDS011;63132;52.268;5.192;2023-03-11T12:17:22;5.38;;;1.55;;
74626;SDS011;63132;52.268;5.192;2023-03-11T12:22:23;5.43;;;0.70;;
74626;SDS011;63132;52.268;5.192;2023-03-11T12:25:22;5.82;;;0.85;;
74626;SDS011;63132;52.268;5.192;2023-03-11T12:27:58;4.60;;;1.10;;
74626;SDS011;63132;52.268;5.192;2023-03-11T12:30:52;6.60;;;1.80;;
74626;SDS011;63132;52.268;5.192;2023-03-11T12:36:23;6.32;;;1.08;;
74626;SDS011;63132;52.268;5.192;2023-03-11T12:38:53;2.60;;;1.08;;
74626;SDS011;63132;52.268;5.192;2023-03-11T12:41:27;3.13;;;0.90;;
74626;SDS011;63132;52.268;5.192;2023-03-11T12:44:20;4.55;;;1.08;;
74626;SDS011;63132;52.268;5.192;2023-03-11T12:52:20;2.85;;;0.90;;
74626;SDS011;63132;52.268;5.192;2023-03-11T12:54:48;3.13;;;1.10;;
74626;SDS011;63132;52.268;5.192;2023-03-11T12:58:15;6.75;;;1.27;;
74626;SDS011;63132;52.268;5.192;2023-03-11T13:00:53;8.55;;;1.48;;
74626;SDS011;63132;52.268;5.192;2023-03-11T13:04:13;8.27;;;1.50;;
74626;SDS011;63132;52.268;5.192;2023-03-11T13:09:20;7.90;;;1.55;;
74626;SDS011;63132;52.268;5.192;2023-03-11T13:11:46;4.55;;;1.08;;
74626;SDS011;63132;52.268;5.192;2023-03-11T13:14:24;2.95;;;0.93;;
74626;SDS011;63132;52.268;5.192;2023-03-11T13:16:56;12.27;;;2.10;;
74626;SDS011;63132;52.268;5.192;2023-03-11T13:19:48;7.20;;;1.20;;
74626;SDS011;63132;52.268;5.192;2023-03-11T13:25:27;4.70;;;1.40;;
74626;SDS011;63132;52.268;5.192;2023-03-11T13:37:11;5.50;;;1.35;;
74626;SDS011;63132;52.268;5.192;2023-03-11T13:42:29;5.07;;;1.30;;
74626;SDS011;63132;52.268;5.192;2023-03-11T13:44:59;8.88;;;1.20;;
74626;SDS011;63132;52.268;5.192;2023-03-11T13:47:25;7.05;;;1.33;;
74626;SDS011;63132;52.268;5.192;2023-03-11T13:52:35;4.43;;;1.10;;
74626;SDS011;63132;52.268;5.192;2023-03-11T13:55:08;6.38;;;1.60;;
74626;SDS011;63132;52.268;5.192;2023-03-11T13:57:39;4.85;;;1.15;;
74626;SDS011;63132;52.268;5.192;2023-03-11T14:00:18;5.35;;;1.38;;
74626;SDS011;63132;52.268;5.192;2023-03-11T14:03:10;5.03;;;1.05;;
74626;SDS011;63132;52.268;5.192;2023-03-11T14:05:37;9.02;;;1.38;;
74626;SDS011;63132;52.268;5.192;2023-03-11T14:13:38;5.70;;;1.80;;
74626;SDS011;63132;52.268;5.192;2023-03-11T14:16:09;4.07;;;1.17;;
74626;SDS011;63132;52.268;5.192;2023-03-11T14:18:44;8.37;;;1.57;;
74626;SDS011;63132;52.268;5.192;2023-03-11T14:21:25;5.00;;;1.67;;
74626;SDS011;63132;52.268;5.192;2023-03-11T14:23:52;5.53;;;1.02;;
74626;SDS011;63132;52.268;5.192;2023-03-11T14:26:26;3.92;;;1.30;;
74626;SDS011;63132;52.268;5.192;2023-03-11T14:28:58;3.50;;;1.10;;
74626;SDS011;63132;52.268;5.192;2023-03-11T14:31:34;2.40;;;1.23;;
74626;SDS011;63132;52.268;5.192;2023-03-11T14:34:00;5.30;;;1.25;;
74626;SDS011;63132;52.268;5.192;2023-03-11T14:36:38;5.53;;;2.20;;
74626;SDS011;63132;52.268;5.192;2023-03-11T14:39:25;7.07;;;1.30;;
74626;SDS011;63132;52.268;5.192;2023-03-11T14:41:55;4.15;;;1.13;;
74626;SDS011;63132;52.268;5.192;2023-03-11T14:44:24;7.68;;;1.40;;
74626;SDS011;63132;52.268;5.192;2023-03-11T14:46:51;9.15;;;1.67;;
74626;SDS011;63132;52.268;5.192;2023-03-11T14:49:20;4.35;;;1.50;;
74626;SDS011;63132;52.268;5.192;2023-03-11T14:51:50;2.22;;;1.00;;
74626;SDS011;63132;52.268;5.192;2023-03-11T14:54:24;4.22;;;1.33;;
74626;SDS011;63132;52.268;5.192;2023-03-11T14:56:56;4.82;;;1.40;;
74626;SDS011;63132;52.268;5.192;2023-03-11T14:59:29;23.17;;;6.25;;
74626;SDS011;63132;52.268;5.192;2023-03-11T15:01:58;11.38;;;2.65;;
74626;SDS011;63132;52.268;5.192;2023-03-11T15:04:37;7.07;;;1.98;;
74626;SDS011;63132;52.268;5.192;2023-03-11T15:07:08;6.35;;;1.83;;
74626;SDS011;63132;52.268;5.192;2023-03-11T15:09:33;6.00;;;1.40;;
74626;SDS011;63132;52.268;5.192;2023-03-11T15:12:05;5.63;;;1.67;;
74626;SDS011;63132;52.268;5.192;2023-03-11T15:14:32;5.53;;;1.52;;
74626;SDS011;63132;52.268;5.192;2023-03-11T15:19:40;7.40;;;1.42;;
74626;SDS011;63132;52.268;5.192;2023-03-11T15:22:20;4.85;;;1.42;;
74626;SDS011;63132;52.268;5.192;2023-03-11T15:24:50;4.47;;;1.42;;
74626;SDS011;63132;52.268;5.192;2023-03-11T15:27:29;5.45;;;1.38;;
74626;SDS011;63132;52.268;5.192;2023-03-11T15:29:56;9.20;;;1.85;;
74626;SDS011;63132;52.268;5.192;2023-03-11T15:37:32;4.13;;;0.97;;
74626;SDS011;63132;52.268;5.192;2023-03-11T15:40:09;5.22;;;1.00;;
74626;SDS011;63132;52.268;5.192;2023-03-11T15:42:36;6.13;;;1.20;;
74626;SDS011;63132;52.268;5.192;2023-03-11T15:47:26;4.38;;;0.90;;
74626;SDS011;63132;52.268;5.192;2023-03-11T15:49:52;4.90;;;1.23;;
74626;SDS011;63132;52.268;5.192;2023-03-11T15:52:18;6.23;;;1.10;;
74626;SDS011;63132;52.268;5.192;2023-03-11T15:57:12;5.25;;;1.08;;
74626;SDS011;63132;52.268;5.192;2023-03-11T15:59:46;5.57;;;1.48;;
74626;SDS011;63132;52.268;5.192;2023-03-11T16:04:53;5.30;;;0.80;;
74626;SDS011;63132;52.268;5.192;2023-03-11T16:07:19;3.45;;;0.80;;
74626;SDS011;63132;52.268;5.192;2023-03-11T16:09:45;2.70;;;0.82;;
74626;SDS011;63132;52.268;5.192;2023-03-11T16:12:15;4.95;;;1.17;;
74626;SDS011;63132;52.268;5.192;2023-03-11T16:14:43;6.55;;;0.95;;
74626;SDS011;63132;52.268;5.192;2023-03-11T16:17:09;4.75;;;1.40;;
74626;SDS011;63132;52.268;5.192;2023-03-11T16:19:39;8.15;;;1.20;;
74626;SDS011;63132;52.268;5.192;2023-03-11T16:22:17;3.47;;;1.50;;
74626;SDS011;63132;52.268;5.192;2023-03-11T16:24:45;5.07;;;1.00;;
74626;SDS011;63132;52.268;5.192;2023-03-11T16:27:14;4.88;;;0.93;;
74626;SDS011;63132;52.268;5.192;2023-03-11T16:29:41;8.63;;;1.17;;
74626;SDS011;63132;52.268;5.192;2023-03-11T16:32:07;5.85;;;0.98;;
74626;SDS011;63132;52.268;5.192;2023-03-11T16:34:34;2.33;;;1.13;;
74626;SDS011;63132;52.268;5.192;2023-03-11T16:37:00;5.97;;;1.30;;
74626;SDS011;63132;52.268;5.192;2023-03-11T16:39:25;9.23;;;2.07;;
74626;SDS011;63132;52.268;5.192;2023-03-11T16:41:51;15.10;;;3.20;;
74626;SDS011;63132;52.268;5.192;2023-03-11T16:44:16;5.37;;;1.37;;
74626;SDS011;63132;52.268;5.192;2023-03-11T16:46:41;9.05;;;2.03;;
74626;SDS011;63132;52.268;5.192;2023-03-11T16:49:07;5.78;;;1.00;;